Time;durP1;ratioP1;P1;durP2;ratioP2;P2;SDS_P1;SDS_P2;PMS_P1;PMS_P2;Temp;Humidity;BMP_temperature;BMP_pressure;BME280_temperature;BME280_humidity;BME280_pressure;Samples;Min_cycle;Max_cycle;Signal;HPM_P1;HPM_P2
2021/05/18 00:01:06;;;;;;;13.73;8.07;;;10.80;88.80;;;;;;5132809;28;20078;-69
2021/05/18 00:03:32;;;;;;;11.87;8.73;;;10.80;88.70;;;;;;5131230;27;20043;-69
2021/05/18 00:05:59;;;;;;;12.37;8.17;;;10.80;88.70;;;;;;5131583;28;20070;-69
2021/05/18 00:08:26;;;;;;;12.50;7.83;;;10.80;88.80;;;;;;5132199;28;20051;-69
2021/05/18 00:13:49;;;;;;;10.57;8.40;;;10.80;89.00;;;;;;5131886;28;20050;-69
2021/05/18 00:16:16;;;;;;;13.17;9.00;;;10.80;89.00;;;;;;5132094;27;20043;-69
2021/05/18 00:18:43;;;;;;;11.67;8.70;;;10.80;88.90;;;;;;5130936;28;20078;-70
2021/05/18 00:21:09;;;;;;;11.80;7.90;;;10.80;88.90;;;;;;5132004;28;20406;-69
2021/05/18 00:23:36;;;;;;;11.00;8.20;;;10.80;89.00;;;;;;5131992;28;20058;-69
2021/05/18 00:26:03;;;;;;;13.67;9.63;;;10.80;88.90;;;;;;5131400;28;20088;-69
2021/05/18 00:28:29;;;;;;;10.70;8.73;;;10.80;89.00;;;;;;5131923;28;20043;-69
2021/05/18 00:30:55;;;;;;;13.33;8.80;;;10.80;89.00;;;;;;5131896;28;20054;-69
2021/05/18 00:33:22;;;;;;;10.97;7.83;;;10.80;89.00;;;;;;5130846;28;20337;-70
2021/05/18 00:35:49;;;;;;;11.50;8.93;;;10.80;89.00;;;;;;5132257;27;20511;-68
2021/05/18 00:38:17;;;;;;;9.00;7.80;;;10.80;89.00;;;;;;5135160;27;20115;-68
2021/05/18 00:40:43;;;;;;;8.73;7.83;;;10.80;89.10;;;;;;5135369;27;20047;-68
2021/05/18 00:43:11;;;;;;;11.87;9.07;;;10.80;89.20;;;;;;5135725;27;20074;-70
2021/05/18 00:45:45;;;;;;;12.63;9.53;;;10.80;89.10;;;;;;5135370;27;20047;-68
2021/05/18 00:48:11;;;;;;;13.13;9.30;;;10.80;90.00;;;;;;5135563;27;20135;-68
2021/05/18 00:50:40;;;;;;;13.97;9.07;;;10.80;89.20;;;;;;5135178;27;20075;-68
2021/05/18 00:53:06;;;;;;;13.10;9.63;;;10.80;89.30;;;;;;5134698;27;20487;-69
2021/05/18 00:55:42;;;;;;;10.57;9.27;;;10.80;89.40;;;;;;5134838;27;20392;-68
2021/05/18 00:58:27;;;;;;;11.97;9.97;;;10.80;89.50;;;;;;5135445;27;20053;-68
2021/05/18 01:00:59;;;;;;;13.03;9.47;;;10.80;89.50;;;;;;5134164;27;20073;-69
2021/05/18 01:03:26;;;;;;;15.60;9.90;;;10.80;89.60;;;;;;5135094;27;20103;-68
2021/05/18 01:08:36;;;;;;;12.30;10.33;;;10.80;89.80;;;;;;5134199;27;20480;-68
2021/05/18 01:11:04;;;;;;;12.67;10.27;;;10.70;89.80;;;;;;5134719;27;20050;-68
2021/05/18 01:13:31;;;;;;;12.97;10.03;;;10.70;89.90;;;;;;5134105;27;20090;-69
2021/05/18 01:15:56;;;;;;;11.27;9.70;;;10.70;89.90;;;;;;5134486;27;20484;-68
2021/05/18 01:18:23;;;;;;;14.77;10.20;;;10.70;90.00;;;;;;5135009;27;20043;-68
2021/05/18 01:20:57;;;;;;;12.07;9.73;;;10.60;89.90;;;;;;5134073;27;20560;-68
2021/05/18 01:23:23;;;;;;;12.10;10.37;;;10.70;90.00;;;;;;5134544;27;20057;-68
2021/05/18 01:25:48;;;;;;;13.80;9.80;;;10.60;89.90;;;;;;5134712;27;20361;-69
2021/05/18 01:28:14;;;;;;;13.93;10.03;;;10.60;89.90;;;;;;5134179;27;20054;-69
2021/05/18 01:30:40;;;;;;;10.80;9.27;;;10.60;90.00;;;;;;5134488;27;20449;-69
2021/05/18 01:33:06;;;;;;;13.83;9.80;;;10.60;90.00;;;;;;5134775;27;20065;-69
2021/05/18 01:35:32;;;;;;;13.03;10.93;;;10.50;89.90;;;;;;5134109;27;20054;-69
2021/05/18 01:38:00;;;;;;;10.27;9.17;;;10.50;89.80;;;;;;5134416;27;20050;-69
2021/05/18 01:42:53;;;;;;;13.03;10.20;;;10.40;90.00;;;;;;5133527;27;20085;-69
2021/05/18 01:45:23;;;;;;;12.37;10.87;;;10.40;90.00;;;;;;5134180;27;20502;-69
2021/05/18 01:47:52;;;;;;;12.83;9.83;;;10.30;90.00;;;;;;5133629;27;20108;-69
2021/05/18 01:50:19;;;;;;;13.00;10.53;;;10.20;90.00;;;;;;5133550;27;20070;-69
2021/05/18 01:52:45;;;;;;;12.83;10.10;;;10.20;90.00;;;;;;5134021;27;20051;-69
2021/05/18 01:55:16;;;;;;;11.57;9.90;;;10.20;90.00;;;;;;5134369;27;20101;-68
2021/05/18 01:57:43;;;;;;;15.83;11.50;;;10.10;90.00;;;;;;5133504;27;20103;-69
2021/05/18 02:00:11;;;;;;;13.27;10.93;;;10.10;90.00;;;;;;5134503;27;20047;-69
2021/05/18 02:02:37;;;;;;;14.10;10.43;;;10.00;89.90;;;;;;5133275;27;20075;-69
2021/05/18 02:05:08;;;;;;;14.43;10.37;;;10.00;90.00;;;;;;5133313;27;20078;-69
2021/05/18 02:07:36;;;;;;;15.30;11.00;;;9.90;90.00;;;;;;5133808;27;20043;-69
2021/05/18 02:10:08;;;;;;;12.83;10.30;;;9.90;90.00;;;;;;5133331;27;20047;-69
2021/05/18 02:12:34;;;;;;;14.45;10.68;;;9.90;90.00;;;;;;5133649;27;20379;-69
2021/05/18 02:15:20;;;;;;;12.87;10.53;;;9.80;90.00;;;;;;5133668;27;20126;-69
2021/05/18 02:17:51;;;;;;;13.07;10.13;;;9.80;90.00;;;;;;5132904;27;20134;-69
2021/05/18 02:25:29;;;;;;;13.83;11.10;;;9.70;90.10;;;;;;5132993;27;20394;-69
2021/05/18 02:27:56;;;;;;;15.07;10.23;;;9.60;90.10;;;;;;5133553;27;20297;-69
2021/05/18 02:30:24;;;;;;;11.80;9.83;;;9.60;90.20;;;;;;5133472;27;20119;-69
2021/05/18 02:32:51;;;;;;;17.37;10.97;;;9.60;90.20;;;;;;5132593;27;20325;-69
2021/05/18 02:35:17;;;;;;;14.17;10.87;;;9.60;90.30;;;;;;5133200;27;20300;-69
2021/05/18 02:37:46;;;;;;;13.00;10.30;;;9.50;90.30;;;;;;5132946;27;20091;-69
2021/05/18 02:40:18;;;;;;;14.70;10.50;;;9.50;90.30;;;;;;5133213;27;20293;-68
2021/05/18 02:42:43;;;;;;;;;;;9.50;90.40;;;;;;5133585;27;20392;-69
2021/05/18 02:45:17;;;;;;;14.07;10.77;;;9.40;90.40;;;;;;5132780;27;20017;-68
2021/05/18 02:50:28;;;;;;;15.87;10.83;;;9.40;90.40;;;;;;5133125;27;20335;-69
2021/05/18 02:52:54;;;;;;;13.03;10.70;;;9.30;90.40;;;;;;5132544;27;20339;-69
2021/05/18 02:55:35;;;;;;;14.53;11.60;;;9.30;90.50;;;;;;5132507;27;20054;-69
2021/05/18 02:58:01;;;;;;;16.65;11.18;;;9.30;90.60;;;;;;5132995;27;20332;-69
2021/05/18 03:00:27;;;;;;;15.53;10.90;;;9.20;90.60;;;;;;5131284;27;20039;-68
2021/05/18 03:02:53;;;;;;;12.37;10.87;;;9.30;90.70;;;;;;5132853;27;20312;-69
2021/05/18 03:05:19;;;;;;;13.90;10.70;;;9.20;90.70;;;;;;5132396;27;20162;-69
2021/05/18 03:07:46;;;;;;;15.30;10.83;;;9.20;90.70;;;;;;5132138;27;20075;-68
2021/05/18 03:10:14;;;;;;;15.93;11.10;;;9.10;90.80;;;;;;5132858;27;20388;-69
2021/05/18 03:12:39;;;;;;;15.00;11.20;;;9.10;90.80;;;;;;5133093;27;20304;-68
2021/05/18 03:15:06;;;;;;;15.80;11.33;;;9.10;90.80;;;;;;5131796;27;20338;-68
2021/05/18 03:17:32;;;;;;;14.10;10.03;;;9.10;90.90;;;;;;5132613;27;20047;-68
2021/05/18 03:19:59;;;;;;;14.93;11.20;;;9.10;90.90;;;;;;5132183;27;20293;-69
2021/05/18 03:22:25;;;;;;;16.37;10.73;;;9.00;90.90;;;;;;5132327;27;20773;-68
2021/05/18 03:24:51;;;;;;;15.73;11.03;;;9.00;91.00;;;;;;5132600;27;20078;-68
2021/05/18 03:27:17;;;;;;;15.57;10.10;;;9.00;91.00;;;;;;5132070;27;20146;-68
2021/05/18 03:29:44;;;;;;;15.70;11.07;;;9.00;91.10;;;;;;5132228;27;20812;-68
2021/05/18 03:34:54;;;;;;;13.87;10.33;;;9.00;91.10;;;;;;5131747;27;20292;-69
2021/05/18 03:37:42;;;;;;;18.90;12.43;;;8.90;91.10;;;;;;5132061;27;20392;-68
2021/05/18 03:40:11;;;;;;;18.10;9.63;;;8.90;91.20;;;;;;5132638;27;20289;-68
2021/05/18 03:42:44;;;;;;;11.80;8.60;;;8.90;91.20;;;;;;5131401;28;20313;-68
2021/05/18 03:45:20;;;;;;;12.47;10.23;;;8.90;91.20;;;;;;5132380;28;20384;-68
2021/05/18 04:04:06;;;;;;;14.93;10.43;;;8.70;91.40;;;;;;5131407;28;20180;-68
2021/05/18 04:12:10;;;;;;;12.47;9.83;;;8.80;91.50;;;;;;5134720;27;20292;-69
2021/05/18 04:17:22;;;;;;;13.00;10.50;;;8.80;91.50;;;;;;5135087;27;20297;-68
2021/05/18 04:20:11;;;;;;;14.60;9.83;;;8.80;91.50;;;;;;5135711;27;20654;-69
2021/05/18 04:25:29;;;;;;;13.63;9.73;;;9.00;91.70;;;;;;5134769;27;20645;-69
2021/05/18 04:38:56;;;;;;;11.87;10.13;;;9.10;91.10;;;;;;5134868;27;20295;-69
2021/05/18 04:52:17;;;;;;;13.83;10.33;;;9.10;91.20;;;;;;5134983;27;20300;-68
2021/05/18 04:59:56;;;;;;;11.97;10.50;;;9.10;91.40;;;;;;5134551;27;20695;-69
2021/05/18 05:12:28;;;;;;;10.47;9.37;;;9.80;91.50;;;;;;5134685;27;20293;-68
2021/05/18 05:15:41;;;;;;;10.17;8.80;;;10.40;91.70;;;;;;5134613;27;20498;-69
2021/05/18 05:18:09;;;;;;;15.30;10.00;;;11.10;91.70;;;;;;5134980;27;20050;-69
2021/05/18 05:20:36;;;;;;;9.97;8.97;;;12.00;91.00;;;;;;5133764;27;20499;-69
2021/05/18 05:23:01;;;;;;;10.43;8.67;;;12.80;90.00;;;;;;5133503;27;20138;-68
2021/05/18 05:25:27;;;;;;;10.90;8.37;;;13.30;87.50;;;;;;5134584;27;20131;-69
2021/05/18 05:27:52;;;;;;;8.67;7.70;;;13.40;85.60;;;;;;5133875;27;20051;-69
2021/05/18 05:30:19;;;;;;;11.13;8.63;;;13.00;85.00;;;;;;5134875;27;20051;-69
2021/05/18 05:32:44;;;;;;;10.70;8.97;;;12.70;85.20;;;;;;5134383;27;20059;-68
2021/05/18 05:35:10;;;;;;;9.77;8.60;;;12.30;85.50;;;;;;5133951;27;20039;-68
2021/05/18 05:37:37;;;;;;;12.40;8.57;;;12.10;85.90;;;;;;5134125;27;20129;-68
2021/05/18 05:40:04;;;;;;;10.40;8.20;;;11.90;86.00;;;;;;5133946;27;20043;-68
2021/05/18 05:42:30;;;;;;;10.03;8.50;;;11.70;86.40;;;;;;5132131;27;20514;-68
2021/05/18 05:44:55;;;;;;;13.13;9.67;;;11.50;86.60;;;;;;5133772;27;20039;-68
2021/05/18 05:47:21;;;;;;;12.57;9.37;;;11.40;86.50;;;;;;5133233;27;20039;-69
2021/05/18 05:49:47;;;;;;;12.30;8.63;;;11.30;86.80;;;;;;5133100;27;20057;-68
2021/05/18 05:52:21;;;;;;;11.43;9.60;;;11.30;87.20;;;;;;5133185;27;20043;-68
2021/05/18 05:54:48;;;;;;;11.53;9.70;;;11.20;87.30;;;;;;5133072;27;20047;-68
2021/05/18 05:57:14;;;;;;;12.83;9.47;;;11.20;87.20;;;;;;5132872;27;20475;-68
2021/05/18 05:59:39;;;;;;;13.13;10.37;;;11.20;87.20;;;;;;5133798;27;20047;-69
2021/05/18 06:02:05;;;;;;;12.33;10.17;;;11.10;87.30;;;;;;5132866;27;20047;-68
2021/05/18 06:04:32;;;;;;;14.43;10.00;;;11.20;87.50;;;;;;5133114;27;20046;-68
2021/05/18 06:06:58;;;;;;;12.57;9.27;;;11.20;87.60;;;;;;5130541;27;20524;-68
2021/05/18 06:09:25;;;;;;;11.30;9.57;;;11.30;87.40;;;;;;5132810;27;20411;-69
2021/05/18 06:17:33;;;;;;;12.27;9.70;;;11.40;87.00;;;;;;5132443;27;20051;-68
2021/05/18 06:29:48;;;;;;;10.77;9.60;;;11.50;86.90;;;;;;5132821;27;20070;-68
2021/05/18 06:47:31;;;;;;;10.77;9.00;;;12.00;86.20;;;;;;5112684;28;20120;-69
2021/05/18 06:50:28;;;;;;;12.30;9.53;;;12.00;86.00;;;;;;5112207;28;20492;-69
2021/05/18 06:52:47;;;;;;;10.00;8.70;;;12.10;85.60;;;;;;5111062;28;20101;-69
2021/05/18 06:55:19;;;;;;;11.33;9.20;;;12.10;85.50;;;;;;5112404;28;20084;-69
2021/05/18 06:57:48;;;;;;;11.23;8.87;;;12.20;85.30;;;;;;5112296;27;20050;-69
2021/05/18 07:00:19;;;;;;;12.40;9.80;;;12.20;85.10;;;;;;5111575;28;20082;-69
2021/05/18 07:02:46;;;;;;;9.30;8.10;;;12.20;84.70;;;;;;5112123;28;20075;-69
2021/05/18 07:07:44;;;;;;;9.65;8.65;;;12.30;84.60;;;;;;5111814;28;20104;-69
2021/05/18 07:10:10;;;;;;;10.83;9.03;;;12.30;84.50;;;;;;5112336;28;20044;-69
2021/05/18 07:12:42;;;;;;;11.83;9.20;;;12.20;84.30;;;;;;5111389;28;20453;-69
2021/05/18 07:15:08;;;;;;;8.87;7.97;;;12.30;85.30;;;;;;5112393;28;20050;-69
2021/05/18 07:17:34;;;;;;;10.10;9.03;;;12.80;85.20;;;;;;5111470;28;20480;-69
2021/05/18 07:19:59;;;;;;;9.83;8.80;;;13.20;83.50;;;;;;5110732;28;20051;-69
2021/05/18 07:22:25;;;;;;;10.17;9.13;;;13.40;82.90;;;;;;5111857;28;20043;-69
2021/05/18 07:24:51;;;;;;;9.33;8.20;;;13.60;82.50;;;;;;5111744;28;20123;-69
2021/05/18 07:27:16;;;;;;;9.27;8.17;;;14.00;81.70;;;;;;5111048;28;20047;-69
2021/05/18 07:29:42;;;;;;;8.90;7.37;;;14.30;80.50;;;;;;5125529;27;20074;-69
2021/05/18 07:32:08;;;;;;;8.27;7.37;;;14.50;78.90;;;;;;5132591;27;20063;-69
2021/05/18 07:34:34;;;;;;;8.23;7.23;;;14.40;77.30;;;;;;5131403;27;20039;-68
2021/05/18 07:36:59;;;;;;;7.80;7.03;;;14.30;77.00;;;;;;5132146;27;20047;-67
2021/05/18 07:39:25;;;;;;;8.73;7.87;;;14.20;76.00;;;;;;5132240;27;20491;-68
2021/05/18 07:41:50;;;;;;;8.07;6.97;;;14.00;75.50;;;;;;5131420;28;20047;-68
2021/05/18 07:44:16;;;;;;;8.40;7.10;;;13.80;75.50;;;;;;5132136;27;20047;-68
2021/05/18 07:46:43;;;;;;;8.30;6.77;;;13.70;75.70;;;;;;5131712;27;20085;-68
2021/05/18 07:49:26;;;;;;;8.37;7.27;;;13.70;76.30;;;;;;5131623;28;20051;-68
2021/05/18 07:59:13;;;;;;;8.23;6.73;;;13.70;75.50;;;;;;5132122;28;20050;-68
2021/05/18 08:00:25;;;;;;;8.00;7.30;;;13.90;75.30;;;;;;5132444;27;20059;-69
2021/05/18 08:05:24;;;;;;;;;;;14.20;74.50;;;;;;5131975;28;20423;-69
2021/05/18 08:07:50;;;;;;;8.60;7.47;;;14.20;70.60;;;;;;5131902;28;19926;-69
2021/05/18 08:10:22;;;;;;;7.97;7.17;;;14.10;74.60;;;;;;5131366;28;20446;-69
2021/05/18 08:12:48;;;;;;;7.23;5.17;;;14.10;74.70;;;;;;5131979;28;20043;-69
2021/05/18 08:46:58;;;;;;;6.73;5.80;;;14.50;72.30;;;;;;5131924;28;20130;-69
2021/05/18 09:28:38;;;;;;;6.00;4.47;;;13.90;71.50;;;;;;5135231;27;20051;-68
2021/05/18 09:49:52;;;;;;;6.70;5.50;;;14.20;70.10;;;;;;5132961;27;20130;-69
2021/05/18 10:24:05;;;;;;;2.30;1.03;;;15.90;63.60;;;;;;5132687;27;20526;-68
2021/05/18 10:36:04;;;;;;;2.17;1.50;;;14.30;65.10;;;;;;5133491;27;20099;-69
2021/05/18 10:38:38;;;;;;;2.50;1.50;;;14.00;65.70;;;;;;5132577;27;20484;-69
2021/05/18 10:41:10;;;;;;;2.20;1.73;;;13.90;65.70;;;;;;5133496;27;20048;-69
2021/05/18 10:43:36;;;;;;;2.03;1.83;;;13.70;66.10;;;;;;5132562;27;20043;-69
2021/05/18 10:46:07;;;;;;;2.97;1.83;;;13.60;66.50;;;;;;5133018;27;20543;-69
2021/05/18 10:48:36;;;;;;;2.38;2.00;;;13.50;67.10;;;;;;5133238;27;20399;-69
2021/05/18 10:51:19;;;;;;;2.67;2.23;;;13.50;68.50;;;;;;5132233;27;20074;-68
2021/05/18 10:54:24;;;;;;;2.47;2.10;;;13.70;68.90;;;;;;5132875;27;20051;-70
2021/05/18 10:56:52;;;;;;;2.20;1.90;;;14.20;67.80;;;;;;5133086;27;20043;-70
2021/05/18 10:59:30;;;;;;;3.50;2.13;;;14.60;67.00;;;;;;5131971;27;20487;-71
2021/05/18 11:02:03;;;;;;;2.63;2.33;;;15.10;64.40;;;;;;5132741;27;20057;-70
2021/05/18 11:04:31;;;;;;;4.77;2.50;;;15.10;63.70;;;;;;5131658;27;20112;-70
2021/05/18 11:06:59;;;;;;;3.17;2.87;;;14.90;63.60;;;;;;5132714;27;20051;-69
2021/05/18 11:09:25;;;;;;;3.07;2.17;;;14.90;64.80;;;;;;5132772;27;20047;-68
2021/05/18 11:12:00;;;;;;;3.27;2.20;;;14.90;65.00;;;;;;5132035;27;20047;-69
2021/05/18 11:14:44;;;;;;;5.33;2.73;;;15.00;64.30;;;;;;5132784;27;20143;-69
2021/05/18 11:17:31;;;;;;;5.07;2.97;;;14.90;63.90;;;;;;5133025;27;20058;-69
2021/05/18 11:20:12;;;;;;;4.47;3.73;;;14.80;64.70;;;;;;5131020;27;20392;-69
2021/05/18 11:26:04;;;;;;;7.10;5.70;;;14.60;66.20;;;;;;5131797;27;19919;-69
2021/05/18 11:28:43;;;;;;;6.13;5.53;;;14.50;68.60;;;;;;5132666;27;20047;-69
2021/05/18 11:31:20;;;;;;;5.50;4.60;;;14.30;69.90;;;;;;5132581;27;20407;-70
2021/05/18 11:33:56;;;;;;;6.20;5.17;;;14.10;70.50;;;;;;5131871;27;20212;-70
2021/05/18 11:36:34;;;;;;;5.10;4.33;;;13.90;71.30;;;;;;5132057;27;20520;-70
2021/05/18 11:39:14;;;;;;;6.13;4.50;;;13.80;72.40;;;;;;5132400;27;20560;-70
2021/05/18 11:41:42;;;;;;;5.33;3.83;;;13.60;73.20;;;;;;5131992;27;20054;-70
2021/05/18 11:44:12;;;;;;;5.80;3.87;;;13.50;73.60;;;;;;5132596;28;20047;-70
2021/05/18 11:46:47;;;;;;;5.43;4.83;;;13.50;74.40;;;;;;5131583;28;20966;-70
2021/05/18 11:49:14;;;;;;;5.00;3.93;;;13.50;74.60;;;;;;5131736;28;20047;-70
2021/05/18 11:51:46;;;;;;;6.00;4.67;;;13.40;74.90;;;;;;5132279;28;20043;-70
2021/05/18 11:54:15;;;;;;;5.90;4.60;;;13.60;76.20;;;;;;5131794;28;20341;-70
2021/05/18 11:56:42;;;;;;;6.70;4.87;;;13.80;76.20;;;;;;5132131;28;20099;-70
2021/05/18 11:59:13;;;;;;;6.50;5.13;;;14.00;74.90;;;;;;5132156;28;20043;-70
2021/05/18 12:01:49;;;;;;;4.70;3.73;;;14.10;74.60;;;;;;5131110;28;20443;-70
2021/05/18 12:04:17;;;;;;;5.77;4.37;;;14.10;74.20;;;;;;5131610;28;20091;-70
2021/05/18 12:06:58;;;;;;;6.27;4.20;;;14.10;74.60;;;;;;5131841;28;20047;-70
2021/05/18 12:09:25;;;;;;;4.50;3.60;;;14.40;74.70;;;;;;5131308;28;20116;-70
2021/05/18 12:11:58;;;;;;;4.93;3.60;;;14.50;72.60;;;;;;5131654;28;20495;-70
2021/05/18 12:14:24;;;;;;;3.90;3.00;;;14.60;71.00;;;;;;5131519;28;20047;-70
2021/05/18 12:16:51;;;;;;;3.87;3.20;;;14.50;70.30;;;;;;5130933;28;20051;-71
2021/05/18 12:19:18;;;;;;;6.00;3.80;;;14.60;70.10;;;;;;5131545;28;20055;-71
2021/05/18 12:21:48;;;;;;;4.20;3.43;;;14.60;69.80;;;;;;5130613;28;20093;-71
2021/05/18 12:24:27;;;;;;;4.40;3.50;;;14.50;69.40;;;;;;5131461;27;20051;-70
2021/05/18 12:26:59;;;;;;;4.60;3.43;;;14.50;68.90;;;;;;5131605;28;20049;-70
2021/05/18 12:29:44;;;;;;;4.83;3.40;;;14.60;69.60;;;;;;5130557;28;20076;-70
2021/05/18 12:32:16;;;;;;;4.73;2.90;;;14.60;70.10;;;;;;5133430;27;20047;-70
2021/05/18 12:34:43;;;;;;;4.20;3.37;;;14.80;69.30;;;;;;5135380;27;20051;-70
2021/05/18 12:37:08;;;;;;;4.57;4.10;;;15.20;69.20;;;;;;5134600;27;20440;-70
2021/05/18 12:39:41;;;;;;;5.10;4.17;;;15.60;69.30;;;;;;5135106;27;20081;-71
2021/05/18 12:42:09;;;;;;;6.23;4.00;;;15.90;68.10;;;;;;5135953;27;20400;-70
2021/05/18 12:44:52;;;;;;;4.37;3.60;;;16.00;66.80;;;;;;5134515;27;20051;-71
2021/05/18 12:47:29;;;;;;;6.23;4.70;;;16.10;67.20;;;;;;5135474;27;20043;-70
2021/05/18 12:49:55;;;;;;;5.03;4.27;;;16.20;66.10;;;;;;5134221;27;20824;-70
2021/05/18 12:52:21;;;;;;;5.77;3.80;;;16.10;65.70;;;;;;5135417;27;20047;-69
2021/05/18 12:54:58;;;;;;;6.07;3.73;;;16.10;66.20;;;;;;5135562;27;20067;-70
2021/05/18 12:57:28;;;;;;;4.63;3.70;;;16.10;65.90;;;;;;5134297;27;20050;-70
2021/05/18 13:00:05;;;;;;;4.77;3.53;;;16.10;65.60;;;;;;5135093;27;20103;-70
2021/05/18 13:02:45;;;;;;;5.50;4.30;;;16.10;65.10;;;;;;5135039;27;20476;-71
2021/05/18 13:05:22;;;;;;;5.57;3.70;;;16.20;64.30;;;;;;5134248;27;20058;-71
2021/05/18 13:08:07;;;;;;;6.27;4.40;;;16.30;64.30;;;;;;5134526;27;20537;-70
2021/05/18 13:10:52;;;;;;;5.60;4.13;;;16.60;63.60;;;;;;5134430;27;20461;-71
2021/05/18 13:13:23;;;;;;;5.37;4.83;;;16.60;62.50;;;;;;5134847;27;20575;-71
2021/05/18 13:15:49;;;;;;;5.30;4.77;;;16.40;62.70;;;;;;5134828;27;20169;-71
2021/05/18 13:18:16;;;;;;;6.33;5.33;;;16.30;63.70;;;;;;5134127;27;20082;-70
2021/05/18 13:20:44;;;;;;;6.40;5.40;;;16.40;63.10;;;;;;5134802;27;20067;-71
2021/05/18 13:23:18;;;;;;;5.80;4.90;;;16.30;62.70;;;;;;5135111;27;20046;-71
2021/05/18 13:28:28;;;;;;;6.40;4.10;;;16.00;62.30;;;;;;5134716;27;20051;-71
2021/05/18 13:30:54;;;;;;;8.87;4.40;;;15.60;63.50;;;;;;5134366;27;20125;-71
2021/05/18 13:33:19;;;;;;;5.80;4.03;;;15.30;64.50;;;;;;5133864;27;20154;-70
2021/05/18 13:35:45;;;;;;;5.50;3.97;;;15.10;65.80;;;;;;5134377;27;20419;-71
2021/05/18 13:38:11;;;;;;;8.00;6.33;;;14.80;67.00;;;;;;5134465;27;20050;-71
2021/05/18 13:40:37;;;;;;;10.93;7.10;;;14.50;68.40;;;;;;5133206;27;20043;-70
2021/05/18 13:43:03;;;;;;;12.90;7.97;;;14.20;70.50;;;;;;5133738;27;20134;-69
2021/05/18 13:45:28;;;;;;;17.67;8.63;;;13.90;72.70;;;;;;5133992;27;20044;-69
2021/05/18 13:47:56;;;;;;;10.87;7.23;;;13.60;73.70;;;;;;5133512;27;20047;-68
2021/05/18 13:50:22;;;;;;;13.37;9.10;;;13.40;74.70;;;;;;5134143;27;20399;-69
2021/05/18 13:52:49;;;;;;;14.70;8.60;;;13.10;76.00;;;;;;5134330;27;20055;-68
2021/05/18 13:55:15;;;;;;;16.33;10.37;;;12.70;78.00;;;;;;5133350;27;20047;-68
2021/05/18 13:57:40;;;;;;;11.87;8.90;;;12.30;78.90;;;;;;5134049;27;20103;-67
2021/05/18 14:00:09;;;;;;;16.30;10.07;;;12.00;81.00;;;;;;5133433;27;20092;-67
2021/05/18 14:02:41;;;;;;;12.47;8.87;;;12.00;82.20;;;;;;5133449;27;20095;-67
2021/05/18 14:05:13;;;;;;;11.60;9.30;;;12.00;82.50;;;;;;5132923;27;20553;-68
2021/05/18 14:08:22;;;;;;;10.30;7.90;;;12.00;82.80;;;;;;5131839;27;20086;-69
2021/05/18 14:10:52;;;;;;;12.10;8.90;;;12.00;83.00;;;;;;5133197;27;20051;-70
2021/05/18 14:13:18;;;;;;;8.37;6.87;;;12.10;83.20;;;;;;5133278;27;20070;-69
2021/05/18 14:15:44;;;;;;;10.23;8.33;;;12.20;83.30;;;;;;5132694;27;20122;-68
2021/05/18 14:18:12;;;;;;;9.77;6.87;;;12.30;82.80;;;;;;5133217;27;20530;-70
2021/05/18 14:20:38;;;;;;;11.83;8.70;;;12.30;82.70;;;;;;5133358;27;20051;-69
2021/05/18 14:23:04;;;;;;;10.43;7.00;;;12.30;83.00;;;;;;5132453;27;20054;-70
2021/05/18 14:25:30;;;;;;;9.80;6.97;;;12.30;83.30;;;;;;5133580;27;20142;-70
2021/05/18 14:27:55;;;;;;;9.53;8.53;;;12.40;83.80;;;;;;5133011;27;20548;-69
2021/05/18 14:30:21;;;;;;;10.07;7.83;;;12.40;83.90;;;;;;5132385;27;20039;-69
2021/05/18 14:32:47;;;;;;;8.70;7.80;;;12.50;84.10;;;;;;5133491;27;20440;-70
2021/05/18 14:35:14;;;;;;;8.60;7.07;;;12.50;84.70;;;;;;5132218;27;20100;-70
2021/05/18 14:37:44;;;;;;;8.50;7.60;;;12.50;84.70;;;;;;5133588;27;20082;-69
2021/05/18 14:43:02;;;;;;;8.90;8.10;;;12.40;85.10;;;;;;5132604;27;20047;-69
2021/05/18 14:45:39;;;;;;;9.70;8.37;;;12.40;85.30;;;;;;5133343;27;20039;-69
2021/05/18 14:56:05;;;;;;;9.47;8.47;;;12.10;86.70;;;;;;5133081;27;20062;-71
2021/05/18 14:58:31;;;;;;;9.77;8.13;;;12.10;86.80;;;;;;5131785;27;20105;-69
2021/05/18 15:00:57;;;;;;;10.80;7.93;;;12.00;86.70;;;;;;5132865;27;20043;-69
2021/05/18 15:03:23;;;;;;;12.27;8.80;;;12.00;87.30;;;;;;5131893;27;20055;-69
2021/05/18 15:05:49;;;;;;;10.43;8.77;;;12.00;88.00;;;;;;5132453;27;20556;-69
2021/05/18 15:08:14;;;;;;;11.20;9.97;;;12.00;88.30;;;;;;5132702;27;20141;-69
2021/05/18 15:10:40;;;;;;;13.83;11.23;;;12.10;88.60;;;;;;5132107;27;20119;-69
2021/05/18 15:13:06;;;;;;;12.50;11.23;;;12.10;88.70;;;;;;5132796;27;20047;-68
2021/05/18 15:15:32;;;;;;;13.03;10.73;;;12.10;89.20;;;;;;5132317;27;20051;-68
2021/05/18 15:17:59;;;;;;;14.10;10.77;;;12.10;89.70;;;;;;5131382;27;20058;-67
2021/05/18 15:20:25;;;;;;;13.50;10.70;;;12.20;90.00;;;;;;5131801;27;20088;-68
2021/05/18 15:22:51;;;;;;;13.40;10.47;;;12.30;90.00;;;;;;5132547;27;20047;-69
2021/05/18 15:25:17;;;;;;;11.33;10.07;;;12.30;89.70;;;;;;5131606;27;20047;-68
2021/05/18 15:27:43;;;;;;;14.87;11.70;;;12.30;89.00;;;;;;5132790;27;20067;-68
2021/05/18 15:30:11;;;;;;;12.57;9.07;;;12.30;88.90;;;;;;5132814;27;20047;-68
2021/05/18 15:32:37;;;;;;;15.43;12.50;;;12.30;89.50;;;;;;5131728;27;20047;-68
2021/05/18 15:35:06;;;;;;;19.43;14.40;;;12.20;89.90;;;;;;5132344;27;20047;-68
2021/05/18 15:37:32;;;;;;;14.80;11.83;;;12.20;90.20;;;;;;5131764;27;20519;-68
2021/05/18 15:39:58;;;;;;;16.77;12.97;;;12.10;90.20;;;;;;5131204;27;20084;-68
2021/05/18 15:42:24;;;;;;;14.33;12.73;;;12.10;90.20;;;;;;5132325;27;20043;-68
2021/05/18 15:44:50;;;;;;;16.23;13.80;;;12.00;90.40;;;;;;5131961;27;20082;-68
2021/05/18 15:47:16;;;;;;;18.40;13.50;;;12.00;90.70;;;;;;5131258;28;20039;-68
2021/05/18 15:49:42;;;;;;;16.13;12.87;;;12.00;91.00;;;;;;5131904;28;20046;-68
2021/05/18 15:52:07;;;;;;;15.73;12.67;;;12.00;90.90;;;;;;5132364;28;20389;-68
2021/05/18 15:54:33;;;;;;;15.90;13.60;;;12.00;91.00;;;;;;5131359;27;20067;-69
2021/05/18 15:56:59;;;;;;;15.30;13.40;;;12.00;90.90;;;;;;5132183;27;20080;-68
2021/05/18 15:59:25;;;;;;;13.53;11.20;;;12.10;90.90;;;;;;5132079;28;20479;-68
2021/05/18 16:01:51;;;;;;;15.13;13.53;;;12.10;90.60;;;;;;5131269;28;20126;-70
2021/05/18 16:04:17;;;;;;;16.13;12.97;;;12.10;90.60;;;;;;5132003;28;20096;-70
2021/05/18 16:06:43;;;;;;;19.43;15.60;;;12.10;90.80;;;;;;5132121;27;20047;-70
2021/05/18 16:09:13;;;;;;;17.60;14.37;;;12.10;90.80;;;;;;5136642;27;20047;-69
2021/05/18 16:11:40;;;;;;;18.27;15.37;;;12.10;90.90;;;;;;5136175;27;20058;-69
2021/05/18 16:14:07;;;;;;;16.93;15.10;;;12.10;91.00;;;;;;5135633;27;20496;-69
2021/05/18 16:16:33;;;;;;;15.30;13.70;;;12.10;91.10;;;;;;5135980;27;20047;-69
2021/05/18 16:18:59;;;;;;;14.53;12.93;;;12.10;90.80;;;;;;5135858;27;20062;-69
2021/05/18 16:21:26;;;;;;;17.27;15.50;;;12.20;90.70;;;;;;5135606;27;20047;-70
2021/05/18 16:23:55;;;;;;;17.00;14.70;;;12.20;90.70;;;;;;5135358;27;20047;-69
2021/05/18 16:26:26;;;;;;;15.63;14.00;;;12.20;90.60;;;;;;5135920;27;20403;-69
2021/05/18 16:28:53;;;;;;;;;;;12.30;90.40;;;;;;5135250;27;20047;-69
2021/05/18 16:31:20;;;;;;;16.73;14.40;;;12.20;90.00;;;;;;5136011;27;19931;-69
2021/05/18 16:33:46;;;;;;;17.30;15.50;;;12.10;90.30;;;;;;5135694;27;20070;-69
2021/05/18 16:36:13;;;;;;;16.03;14.17;;;12.10;90.50;;;;;;5135305;27;20468;-69
2021/05/18 16:38:39;;;;;;;17.10;14.37;;;12.00;90.60;;;;;;5136121;27;20095;-69
2021/05/18 16:41:05;;;;;;;18.50;16.13;;;12.00;90.80;;;;;;5135939;27;20130;-70
2021/05/18 16:43:32;;;;;;;19.17;14.73;;;12.00;90.90;;;;;;5134884;27;20060;-70
2021/05/18 16:45:57;;;;;;;20.17;14.87;;;12.00;91.00;;;;;;5135560;27;20479;-69
2021/05/18 16:48:26;;;;;;;18.87;16.10;;;12.00;91.00;;;;;;5135419;27;20051;-69
2021/05/18 16:50:53;;;;;;;25.90;19.07;;;11.90;91.00;;;;;;5134673;27;20054;-69
2021/05/18 16:53:19;;;;;;;25.20;17.40;;;11.90;91.20;;;;;;5135796;27;20047;-68
2021/05/18 16:55:45;;;;;;;18.83;16.40;;;11.80;91.40;;;;;;5134763;27;20506;-68
2021/05/18 16:58:10;;;;;;;18.67;16.10;;;11.80;91.50;;;;;;5135416;27;20170;-67
2021/05/18 17:00:36;;;;;;;16.30;13.03;;;11.80;91.50;;;;;;5135578;27;20158;-67
2021/05/18 17:03:03;;;;;;;18.67;16.67;;;11.80;91.50;;;;;;5134362;27;20472;-68
2021/05/18 17:05:30;;;;;;;22.13;16.83;;;11.80;91.30;;;;;;5134683;27;20100;-68
2021/05/18 17:07:56;;;;;;;20.20;17.33;;;11.70;91.50;;;;;;5134874;27;20466;-68
2021/05/18 17:10:23;;;;;;;15.67;13.27;;;11.70;91.70;;;;;;5134421;27;20047;-68
2021/05/18 17:12:50;;;;;;;20.33;16.57;;;11.70;91.70;;;;;;5135100;27;20058;-68
2021/05/18 17:15:18;;;;;;;19.10;16.50;;;11.70;91.80;;;;;;5134774;27;20047;-68
2021/05/18 17:17:43;;;;;;;21.83;18.13;;;11.70;91.90;;;;;;5133657;27;20055;-68
2021/05/18 17:20:12;;;;;;;21.83;16.97;;;11.70;92.00;;;;;;5134087;27;20445;-68